Time;durP1;ratioP1;P1;durP2;ratioP2;P2;SDS_P1;SDS_P2;PMS_P1;PMS_P2;Temp;Humidity;BMP_temperature;BMP_pressure;BME280_temperature;BME280_humidity;BME280_pressure;Samples;Min_cycle;Max_cycle;Signal;HPM_P1;HPM_P2
2023/10/09 00:01:14;;;;;;;4.07;1.80;;;;;;;7.50;60.31;100970.73;124565;1099;101845;-76
2023/10/09 00:03:53;;;;;;;5.80;2.37;;;;;;;7.48;60.68;100960.20;124506;1099;104220;-76
2023/10/09 00:06:37;;;;;;;4.03;2.10;;;;;;;7.47;60.68;100957.51;124481;1099;104172;-76
2023/10/09 00:09:25;;;;;;;4.93;2.27;;;;;;;7.44;60.09;100960.84;124493;1099;104255;-77
2023/10/09 00:11:57;;;;;;;5.05;2.00;;;;;;;7.42;60.14;100958.94;124292;1099;102981;-77
2023/10/09 00:14:34;;;;;;;4.77;1.90;;;;;;;7.40;60.54;100964.08;124615;1099;104261;-75
2023/10/09 00:17:17;;;;;;;7.00;2.03;;;;;;;7.38;60.04;100953.55;124880;1099;104251;-76
2023/10/09 00:19:51;;;;;;;6.00;2.30;;;;;;;7.38;59.93;100957.88;124814;1099;104179;-76
2023/10/09 00:22:28;;;;;;;;;;;;;;;7.36;59.65;100964.74;124807;1099;101940;-77
2023/10/09 00:25:12;;;;;;;2.83;1.93;;;;;;;7.36;59.48;100959.52;124473;1099;104208;-76
2023/10/09 00:27:43;;;;;;;;;;;;;;;7.34;59.71;100955.94;124634;1099;101979;-76
2023/10/09 00:30:17;;;;;;;2.47;1.70;;;;;;;7.32;59.60;100967.98;124814;1099;101842;-76
2023/10/09 00:32:59;;;;;;;7.43;1.93;;;;;;;7.30;59.05;100970.50;124792;1099;102039;-76
2023/10/09 00:35:46;;;;;;;4.07;1.97;;;;;;;7.29;59.68;100957.36;124700;1098;104338;-76
2023/10/09 00:38:32;;;;;;;4.47;2.10;;;;;;;7.27;59.06;100965.11;124737;1099;104740;-77
2023/10/09 00:41:10;;;;;;;5.40;2.10;;;;;;;7.25;59.10;100955.42;124881;1099;102481;-77
2023/10/09 00:43:43;;;;;;;8.40;2.30;;;;;;;7.24;58.98;100957.11;124777;1099;104176;-76
2023/10/09 00:46:23;;;;;;;3.97;1.93;;;;;;;7.22;59.09;100965.69;124746;1099;104331;-77
2023/10/09 00:49:01;;;;;;;7.57;1.73;;;;;;;7.19;59.24;100964.67;124829;1099;104172;-78
2023/10/09 00:51:35;;;;;;;5.03;2.20;;;;;;;7.18;59.16;100968.13;124659;1099;102210;-76
2023/10/09 00:54:14;;;;;;;8.13;1.80;;;;;;;7.15;59.07;100973.16;124762;1099;104207;-75
2023/10/09 00:56:57;;;;;;;5.47;1.80;;;;;;;7.13;58.81;100971.27;124854;1099;111667;-77
2023/10/09 00:59:28;;;;;;;5.57;2.07;;;;;;;7.12;58.97;100974.67;124821;1099;104248;-76
2023/10/09 01:02:04;;;;;;;4.67;1.70;;;;;;;7.09;58.72;100983.25;124830;1099;104326;-77
2023/10/09 01:04:41;;;;;;;5.23;1.83;;;;;;;7.06;58.74;100975.25;124884;1099;104406;-76
2023/10/09 01:07:15;;;;;;;6.10;1.90;;;;;;;7.05;58.76;100970.83;124726;1099;104204;-75
2023/10/09 01:09:50;;;;;;;3.43;2.00;;;;;;;7.05;58.81;100977.77;124631;1099;104249;-77
2023/10/09 01:12:21;;;;;;;5.77;1.90;;;;;;;7.04;58.64;100976.84;124896;1098;101936;-77
2023/10/09 01:14:54;;;;;;;6.50;2.10;;;;;;;7.02;58.55;100986.31;124912;1099;101884;-78
2023/10/09 01:17:35;;;;;;;2.83;1.67;;;;;;;7.00;58.34;100988.83;124821;1099;107103;-76
2023/10/09 01:20:16;;;;;;;5.90;2.03;;;;;;;6.99;58.76;100993.95;124626;1099;104201;-76
2023/10/09 01:22:50;;;;;;;3.40;1.90;;;;;;;6.96;58.69;100993.78;124425;1099;104262;-76
2023/10/09 01:25:21;;;;;;;;;;;;;;;6.93;58.33;100997.09;124782;1099;104280;-75
2023/10/09 01:27:53;;;;;;;3.60;1.80;;;;;;;6.92;58.38;100994.40;124682;1099;104195;-77
2023/10/09 01:30:24;;;;;;;4.57;1.73;;;;;;;6.89;58.65;100994.22;124814;1098;104315;-76
2023/10/09 01:32:57;;;;;;;5.47;1.70;;;;;;;6.88;58.45;101005.48;124863;1099;104165;-77
2023/10/09 01:35:32;;;;;;;3.17;1.63;;;;;;;6.86;58.77;101001.86;124699;1099;102158;-77
2023/10/09 01:38:10;;;;;;;6.20;1.90;;;;;;;6.84;58.75;101009.64;124813;1098;104233;-77
2023/10/09 01:40:43;;;;;;;5.27;1.60;;;;;;;6.80;58.71;101013.75;124911;1098;104214;-77
2023/10/09 01:43:18;;;;;;;;;;;;;;;6.78;58.68;101025.81;124859;1098;104166;-77
2023/10/09 01:45:51;;;;;;;7.42;1.98;;;;;;;6.76;58.76;101037.88;124628;1099;104211;-78
2023/10/09 01:48:23;;;;;;;9.53;1.77;;;;;;;6.74;58.67;101035.97;124797;1099;104214;-78
2023/10/09 01:50:55;;;;;;;6.10;1.63;;;;;;;6.73;58.63;101035.08;124407;1099;101840;-77
2023/10/09 01:53:30;;;;;;;6.83;2.20;;;;;;;6.73;58.35;101041.98;124751;1099;102084;-76
2023/10/09 01:56:14;;;;;;;5.27;1.90;;;;;;;6.71;58.54;101039.28;124380;1099;104194;-77
2023/10/09 01:58:47;;;;;;;6.17;1.80;;;;;;;6.69;58.50;101035.70;124398;1099;104160;-77
2023/10/09 02:01:21;;;;;;;5.60;2.03;;;;;;;6.67;58.89;101034.72;124484;1099;104181;-77
2023/10/09 02:03:54;;;;;;;3.50;1.50;;;;;;;6.66;58.69;101032.91;125002;1099;104236;-77
2023/10/09 02:06:32;;;;;;;2.40;1.60;;;;;;;6.64;58.84;101026.70;125192;1098;102418;-78
2023/10/09 02:09:06;;;;;;;5.97;1.83;;;;;;;6.62;58.40;101038.73;124579;1099;104172;-78
2023/10/09 02:11:41;;;;;;;6.43;1.77;;;;;;;6.60;58.53;101029.92;124967;1099;104174;-76
2023/10/09 02:14:20;;;;;;;8.37;2.23;;;;;;;6.59;58.71;101036.86;124590;1099;104236;-77
2023/10/09 02:17:08;;;;;;;5.93;2.20;;;;;;;6.57;58.70;101040.17;124863;1099;104322;-77
2023/10/09 02:19:42;;;;;;;5.65;1.75;;;;;;;6.57;58.46;101030.63;124763;1099;102260;-76
2023/10/09 02:22:13;;;;;;;5.63;1.80;;;;;;;6.55;58.76;101029.65;124666;1099;101853;-76
2023/10/09 02:24:57;;;;;;;4.30;1.80;;;;;;;6.54;58.56;101030.45;124830;1099;104281;-76
2023/10/09 02:27:46;;;;;;;5.05;1.67;;;;;;;6.53;58.61;101027.74;124802;1099;104332;-76
2023/10/09 02:30:19;;;;;;;3.83;1.67;;;;;;;6.52;58.46;101025.97;124785;1099;104265;-76
2023/10/09 02:32:53;;;;;;;4.83;1.65;;;;;;;6.51;58.82;101034.59;124410;1099;104193;-77
2023/10/09 02:35:38;;;;;;;3.37;1.75;;;;;;;6.50;58.52;101037.98;124706;1099;104202;-77
2023/10/09 02:38:14;;;;;;;3.37;1.70;;;;;;;6.49;58.82;101031.88;124331;1099;101977;-76
2023/10/09 02:43:34;;;;;;;3.83;1.97;;;;;;;6.45;58.88;101043.84;124362;1099;103797;-76
2023/10/09 02:46:13;;;;;;;7.73;1.97;;;;;;;6.44;58.57;101042.03;124340;1099;104341;-76
2023/10/09 02:48:50;;;;;;;5.67;1.90;;;;;;;6.44;58.54;101048.97;124631;1099;104224;-76
2023/10/09 02:51:32;;;;;;;3.60;2.00;;;;;;;6.43;58.76;101054.97;124647;1099;101852;-76
2023/10/09 02:54:26;;;;;;;8.63;2.57;;;;;;;6.42;58.81;101061.91;124522;1099;104262;-75
2023/10/09 02:57:05;;;;;;;5.35;2.17;;;;;;;6.38;58.67;101074.66;124359;1099;104221;-76
2023/10/09 02:59:38;;;;;;;11.10;2.63;;;;;;;6.36;58.95;101068.42;124579;1099;117797;-77
2023/10/09 03:02:10;;;;;;;3.57;1.93;;;;;;;6.33;58.93;101071.77;124629;1099;104272;-77
2023/10/09 03:04:42;;;;;;;7.13;2.03;;;;;;;6.30;58.59;101069.86;124616;1099;104619;-77
2023/10/09 03:07:14;;;;;;;4.27;1.73;;;;;;;6.29;58.77;101073.29;124628;1099;102652;-76
2023/10/09 03:09:45;;;;;;;3.37;1.80;;;;;;;6.28;58.48;101078.41;124796;1099;104245;-76
2023/10/09 03:12:18;;;;;;;5.17;2.13;;;;;;;6.26;58.62;101080.00;124470;1099;104253;-76
2023/10/09 03:14:50;;;;;;;4.63;1.97;;;;;;;6.24;58.76;101076.41;124831;1099;104242;-77
2023/10/09 03:17:22;;;;;;;4.40;1.85;;;;;;;6.22;58.59;101075.42;124673;1099;104638;-76
2023/10/09 03:19:54;;;;;;;5.07;1.50;;;;;;;6.21;58.69;101081.42;124886;1098;111709;-74
2023/10/09 03:22:26;;;;;;;3.60;1.73;;;;;;;6.21;58.47;101081.42;124836;1099;104181;-77
2023/10/09 03:24:57;;;;;;;6.17;1.97;;;;;;;6.20;58.76;101084.83;124706;1099;101956;-75
2023/10/09 03:27:30;;;;;;;5.17;2.57;;;;;;;6.18;58.67;101086.45;124309;1099;101884;-77
2023/10/09 03:30:05;;;;;;;5.37;2.13;;;;;;;6.18;58.70;101091.66;124598;1099;104338;-76
2023/10/09 03:32:36;;;;;;;4.57;1.93;;;;;;;6.17;58.60;101087.23;124635;1099;104169;-76
2023/10/09 03:35:14;;;;;;;9.37;2.00;;;;;;;6.16;58.39;101088.06;124822;1099;101836;-76
2023/10/09 03:37:45;;;;;;;3.13;1.70;;;;;;;6.14;58.77;101094.86;124883;1099;104309;-77
2023/10/09 03:40:17;;;;;;;5.90;1.93;;;;;;;6.13;58.47;101087.87;124573;1099;104297;-76
2023/10/09 03:42:48;;;;;;;3.53;2.00;;;;;;;6.10;58.46;101099.88;124879;1099;104288;-77
2023/10/09 03:45:26;;;;;;;5.17;1.90;;;;;;;6.09;58.63;101085.07;124684;1099;101814;-80
2023/10/09 03:48:04;;;;;;;6.07;2.20;;;;;;;6.09;58.50;101086.75;124569;1099;104185;-76
2023/10/09 03:50:37;;;;;;;4.13;1.80;;;;;;;6.06;58.65;101090.09;124609;1099;117859;-77
2023/10/09 03:53:12;;;;;;;5.00;1.90;;;;;;;6.05;58.88;101083.06;124530;1099;102246;-76
2023/10/09 03:55:44;;;;;;;5.70;1.80;;;;;;;6.05;58.71;101079.56;124419;1099;104070;-77
2023/10/09 03:58:18;;;;;;;6.17;1.90;;;;;;;6.05;58.99;101085.67;124574;1099;104215;-78
2023/10/09 04:00:51;;;;;;;4.70;2.10;;;;;;;6.06;59.00;101099.59;124529;1099;104169;-76
2023/10/09 04:03:24;;;;;;;4.73;1.80;;;;;;;6.05;58.87;101103.02;124517;1099;104220;-74
2023/10/09 04:05:56;;;;;;;6.47;2.03;;;;;;;6.04;59.29;101103.81;124512;1099;104172;-75
2023/10/09 04:08:30;;;;;;;8.13;2.27;;;;;;;6.05;59.03;101105.63;124987;1099;102025;-76
2023/10/09 04:11:03;;;;;;;5.90;2.23;;;;;;;6.03;58.87;101110.73;124448;1099;104347;-75
2023/10/09 04:13:35;;;;;;;5.00;2.43;;;;;;;6.03;59.04;101121.16;124658;1099;104172;-76
2023/10/09 04:16:11;;;;;;;8.97;2.10;;;;;;;6.02;58.97;101114.13;124758;1098;102534;-77
2023/10/09 04:18:45;;;;;;;6.80;2.10;;;;;;;6.01;58.83;101127.95;125187;1099;104057;-77
2023/10/09 04:24:22;;;;;;;9.97;2.33;;;;;;;6.00;59.23;101128.78;125032;1099;102077;-77
2023/10/09 04:26:56;;;;;;;6.17;2.53;;;;;;;6.01;58.95;101127.06;124759;1099;102093;-77
2023/10/09 04:29:28;;;;;;;4.13;1.80;;;;;;;6.02;58.90;101134.98;125049;1099;102113;-77
2023/10/09 04:32:00;;;;;;;7.00;2.40;;;;;;;6.02;58.70;101140.19;125032;1099;101977;-77
2023/10/09 04:34:35;;;;;;;9.43;2.20;;;;;;;6.02;59.04;101137.58;125052;1099;101916;-77
2023/10/09 04:37:36;;;;;;;6.50;2.30;;;;;;;6.03;59.15;101134.19;125201;1099;102071;-80
2023/10/09 04:40:41;;;;;;;6.83;1.97;;;;;;;6.03;58.61;101136.80;124723;1102;102947;-76
2023/10/09 04:43:07;;;;;;;5.03;2.30;;;;;;;6.04;58.92;101146.39;124929;1099;101986;-76
2023/10/09 04:48:37;;;;;;;5.53;2.10;;;;;;;6.07;59.09;101154.41;124982;1099;101989;-76
2023/10/09 04:51:20;;;;;;;6.07;1.90;;;;;;;6.09;58.68;101150.21;125175;1099;102372;-76
2023/10/09 04:54:00;;;;;;;6.97;2.00;;;;;;;6.13;58.87;101160.83;124732;1099;104179;-77
2023/10/09 04:56:33;;;;;;;6.50;1.87;;;;;;;6.15;58.76;101161.82;124850;1099;104245;-79
2023/10/09 04:59:04;;;;;;;6.40;2.50;;;;;;;6.17;58.90;101168.94;124708;1099;104259;-76
2023/10/09 05:01:43;;;;;;;5.25;2.15;;;;;;;6.21;59.00;101176.13;124773;1099;102498;-74
2023/10/09 05:04:38;;;;;;;7.70;2.10;;;;;;;6.26;59.09;101163.39;124967;1099;104175;-76
2023/10/09 05:07:50;;;;;;;7.93;2.20;;;;;;;6.29;59.10;101159.30;125116;1099;102112;-74
2023/10/09 05:10:24;;;;;;;3.87;1.90;;;;;;;6.32;58.99;101158.58;124795;1099;104306;-79
2023/10/09 05:12:57;;;;;;;7.97;1.77;;;;;;;6.37;58.92;101164.08;125039;1099;103280;-77
2023/10/09 05:15:34;;;;;;;6.55;2.33;;;;;;;6.40;58.77;101169.48;124701;1099;104182;-76
2023/10/09 05:18:09;;;;;;;10.20;2.07;;;;;;;6.45;58.81;101168.98;124777;1099;102012;-78
2023/10/09 05:21:35;;;;;;;6.70;2.20;;;;;;;6.49;58.79;101177.89;124818;1101;101956;-77
2023/10/09 05:24:15;;;;;;;10.83;2.27;;;;;;;6.53;58.87;101176.36;124514;1099;102003;-77
2023/10/09 05:26:50;;;;;;;7.53;2.20;;;;;;;6.58;58.64;101180.19;124749;1099;104182;-72
2023/10/09 05:29:48;;;;;;;4.63;2.10;;;;;;;6.60;58.58;101181.17;124844;1099;104201;-76
2023/10/09 05:32:29;;;;;;;7.83;2.13;;;;;;;6.66;58.53;101178.95;125100;1099;104185;-80
2023/10/09 05:35:15;;;;;;;8.70;1.90;;;;;;;6.74;58.60;101189.86;124995;1099;104166;-81
2023/10/09 05:37:51;;;;;;;7.60;2.50;;;;;;;6.80;58.50;101188.52;124557;1099;104277;-74
2023/10/09 05:40:30;;;;;;;8.57;2.00;;;;;;;6.88;58.66;101191.61;124224;1099;101830;-72
2023/10/09 05:43:06;;;;;;;7.00;2.17;;;;;;;6.94;58.29;101193.70;124464;1099;104198;-78
2023/10/09 05:48:54;;;;;;;6.07;2.17;;;;;;;7.09;57.93;101210.30;124490;1102;104230;-73
2023/10/09 05:51:53;;;;;;;4.07;2.03;;;;;;;7.12;57.78;101214.78;124305;1102;104169;-75
2023/10/09 06:06:05;;;;;;;;;;;;;;;7.46;57.34;101236.00;124825;1102;104281;-81
2023/10/09 06:11:43;;;;;;;5.23;2.03;;;;;;;7.62;57.02;101242.13;125423;1099;104252;-83
2023/10/09 06:14:14;;;;;;;7.10;2.33;;;;;;;7.66;56.73;101236.30;125430;1099;102129;-77
2023/10/09 06:16:59;;;;;;;4.20;2.02;;;;;;;7.71;56.95;101240.07;126144;1099;104220;-79
2023/10/09 06:19:42;;;;;;;7.00;2.37;;;;;;;7.76;57.16;101240.34;127429;1098;102125;-79
2023/10/09 06:22:56;;;;;;;6.97;2.43;;;;;;;7.81;56.27;101237.20;124964;1099;102132;-77
2023/10/09 06:25:50;;;;;;;6.07;2.20;;;;;;;7.92;56.59;101245.67;124979;1099;104147;-77
2023/10/09 06:28:33;;;;;;;3.57;1.83;;;;;;;8.00;56.13;101249.62;124629;1099;104249;-76
2023/10/09 06:31:27;;;;;;;6.17;2.20;;;;;;;8.05;56.17;101226.36;124544;1099;104233;-76
2023/10/09 06:34:08;;;;;;;6.45;2.22;;;;;;;8.15;55.90;101236.55;124543;1099;101925;-76
2023/10/09 06:37:00;;;;;;;4.37;1.93;;;;;;;8.26;55.42;101238.05;124414;1099;102245;-76
2023/10/09 06:42:51;;;;;;;4.50;2.20;;;;;;;8.55;56.06;101233.56;124635;1099;104180;-78
2023/10/09 06:45:43;;;;;;;8.70;2.37;;;;;;;8.67;55.08;101235.09;124398;1099;102056;-76
2023/10/09 06:51:12;;;;;;;6.73;2.60;;;;;;;8.80;54.24;101243.70;124363;1099;104415;-76
2023/10/09 07:02:28;;;;;;;6.40;2.10;;;;;;;8.97;54.76;101223.64;124663;1098;102105;-74
2023/10/09 07:05:10;;;;;;;;;;;;;;;9.02;53.59;101233.47;124556;1099;106771;-76
2023/10/09 07:08:28;;;;;;;6.23;1.90;;;;;;;9.02;53.40;101234.36;124390;1099;104236;-75
2023/10/09 07:11:20;;;;;;;7.60;2.07;;;;;;;9.03;53.67;101227.42;124916;1099;104179;-79
2023/10/09 07:13:53;;;;;;;6.70;2.40;;;;;;;9.09;53.97;101225.14;124410;1099;101877;-76
2023/10/09 07:16:28;;;;;;;9.63;2.57;;;;;;;9.17;54.24;101219.47;125038;1099;102522;-81
2023/10/09 07:19:09;;;;;;;7.37;2.10;;;;;;;9.27;53.62;101219.95;125064;1099;102332;-78
2023/10/09 07:21:51;;;;;;;8.03;1.93;;;;;;;9.33;53.29;101218.58;124524;1099;104251;-78
2023/10/09 07:24:37;;;;;;;5.97;2.13;;;;;;;9.37;53.43;101216.13;125110;1099;104239;-76
2023/10/09 07:27:14;;;;;;;2.87;2.00;;;;;;;9.35;53.11;101214.31;124783;1099;104239;-77
2023/10/09 07:29:48;;;;;;;3.13;1.80;;;;;;;9.42;53.18;101217.25;124395;1099;102019;-77
2023/10/09 07:32:21;;;;;;;9.30;2.63;;;;;;;9.45;52.82;101213.05;124797;1098;104235;-75
2023/10/09 07:34:54;;;;;;;7.27;2.17;;;;;;;9.47;52.90;101219.30;124777;1099;104249;-75
2023/10/09 07:37:30;;;;;;;4.50;2.00;;;;;;;9.51;52.28;101220.34;124753;1099;104176;-76
2023/10/09 07:40:07;;;;;;;8.23;2.03;;;;;;;9.58;52.98;101211.06;124351;1102;102363;-77
2023/10/09 07:42:44;;;;;;;8.17;2.47;;;;;;;9.71;52.67;101224.88;125017;1098;102010;-79
2023/10/09 07:48:02;;;;;;;6.57;2.00;;;;;;;9.98;52.57;101216.59;124364;1099;104278;-76
2023/10/09 07:50:48;;;;;;;4.73;2.10;;;;;;;10.08;52.24;101223.17;124481;1099;104239;-79
2023/10/09 07:53:25;;;;;;;19.57;3.50;;;;;;;10.18;52.62;101209.70;124832;1099;102037;-77
2023/10/09 07:56:06;;;;;;;12.77;3.00;;;;;;;10.27;53.22;101219.75;125242;1099;118229;-77
2023/10/09 07:58:47;;;;;;;26.53;3.87;;;;;;;10.34;51.98;101218.34;125299;1099;102086;-78
2023/10/09 08:01:34;;;;;;;8.10;2.07;;;;;;;10.37;51.07;101219.39;124627;1099;101931;-79
2023/10/09 08:04:11;;;;;;;5.07;2.33;;;;;;;10.33;51.51;101217.46;125139;1099;104230;-80
2023/10/09 08:06:44;;;;;;;3.07;1.80;;;;;;;10.35;51.82;101220.16;125318;1098;104188;-78
2023/10/09 08:09:38;;;;;;;5.23;1.87;;;;;;;10.39;51.77;101229.95;124515;1099;102417;-76
2023/10/09 08:15:20;;;;;;;6.77;2.03;;;;;;;10.43;50.42;101230.17;124482;1099;104189;-75
2023/10/09 08:17:53;;;;;;;6.50;2.10;;;;;;;10.52;49.99;101218.34;124721;1099;101852;-76
2023/10/09 08:20:26;;;;;;;15.47;3.20;;;;;;;10.60;50.86;101217.86;124350;1102;104187;-78
2023/10/09 08:22:57;;;;;;;6.07;1.83;;;;;;;10.72;51.00;101212.30;126048;1098;104270;-76
2023/10/09 08:25:36;;;;;;;16.97;3.30;;;;;;;10.83;50.48;101219.75;124285;1102;104259;-76
2023/10/09 08:31:18;;;;;;;9.40;2.00;;;;;;;10.88;50.08;101208.64;124967;1099;104575;-79
2023/10/09 08:33:56;;;;;;;13.33;3.17;;;;;;;10.96;50.15;101195.86;125038;1098;104235;-77
2023/10/09 08:36:36;;;;;;;12.07;2.80;;;;;;;11.09;49.54;101202.55;124429;1102;104748;-75
2023/10/09 08:39:17;;;;;;;7.63;2.87;;;;;;;11.15;49.27;101203.72;124557;1099;104268;-76
2023/10/09 08:41:49;;;;;;;4.67;2.30;;;;;;;11.21;48.67;101197.84;124309;1099;104104;-75
2023/10/09 08:44:25;;;;;;;5.23;2.27;;;;;;;11.24;49.19;101203.23;124668;1099;104290;-79
2023/10/09 08:46:58;;;;;;;7.95;1.80;;;;;;;11.27;48.84;101192.87;125025;1099;102319;-79
2023/10/09 08:49:33;;;;;;;8.65;2.10;;;;;;;11.33;48.40;101193.14;124797;1099;104224;-79
2023/10/09 08:52:05;;;;;;;24.47;3.53;;;;;;;11.39;48.70;101199.48;124835;1099;104322;-80
2023/10/09 08:54:38;;;;;;;29.13;4.40;;;;;;;11.39;48.17;101189.89;124928;1099;104166;-77
2023/10/09 08:57:11;;;;;;;27.03;4.90;;;;;;;11.43;48.73;101185.66;125130;1099;104214;-76
2023/10/09 08:59:45;;;;;;;33.85;5.17;;;;;;;11.49;48.20;101199.95;126409;1098;101772;-76
2023/10/09 09:02:17;;;;;;;20.73;3.23;;;;;;;11.54;47.17;101187.00;125216;1099;104160;-74
2023/10/09 09:04:50;;;;;;;35.30;5.77;;;;;;;11.52;47.62;101167.66;125578;1099;101845;-77
2023/10/09 09:07:34;;;;;;;12.30;2.27;;;;;;;11.63;47.54;101170.73;124779;1099;104137;-76
2023/10/09 09:10:17;;;;;;;8.53;1.92;;;;;;;11.73;48.01;101161.49;124658;1099;102464;-74
2023/10/09 09:12:53;;;;;;;3.93;1.57;;;;;;;11.80;47.44;101153.92;124509;1099;104304;-78
2023/10/09 09:15:27;;;;;;;8.73;2.13;;;;;;;11.86;47.33;101156.81;124877;1099;104264;-81
2023/10/09 09:18:10;;;;;;;;;;;;;;;11.93;46.50;101157.09;125307;1099;104047;-79
2023/10/09 09:20:45;;;;;;;7.17;2.17;;;;;;;11.99;45.98;101150.34;124335;1099;101951;-78
2023/10/09 09:23:23;;;;;;;2.73;1.43;;;;;;;12.06;46.56;101151.50;125046;1099;104201;-76
2023/10/09 09:26:01;;;;;;;5.57;1.60;;;;;;;12.17;46.96;101150.19;124301;1099;102352;-78
2023/10/09 09:28:38;;;;;;;4.53;1.60;;;;;;;12.35;46.93;101149.99;124676;1099;104389;-75
2023/10/09 09:31:13;;;;;;;4.50;1.90;;;;;;;12.42;45.76;101151.16;125115;1099;101866;-76
2023/10/09 09:33:48;;;;;;;2.20;1.33;;;;;;;12.42;45.88;101145.89;125010;1099;101896;-80
2023/10/09 09:36:19;;;;;;;5.87;1.62;;;;;;;12.48;45.74;101139.94;124469;1098;104162;-73
2023/10/09 09:39:01;;;;;;;5.77;1.53;;;;;;;12.53;45.72;101149.81;124741;1099;101947;-74
2023/10/09 09:41:35;;;;;;;2.87;1.30;;;;;;;12.56;44.31;101144.67;124805;1099;104176;-78
2023/10/09 09:44:14;;;;;;;3.40;1.40;;;;;;;12.57;44.92;101142.92;124544;1099;104204;-79
2023/10/09 09:46:47;;;;;;;5.03;1.57;;;;;;;12.60;44.67;101145.67;124579;1099;104252;-77
2023/10/09 09:49:23;;;;;;;4.30;1.60;;;;;;;12.68;45.53;101138.06;124539;1099;104274;-74
2023/10/09 09:52:10;;;;;;;3.27;1.40;;;;;;;12.83;45.04;101143.90;124464;1099;104189;-74
2023/10/09 09:54:44;;;;;;;7.05;1.80;;;;;;;12.94;45.14;101142.55;124820;1099;102361;-76
2023/10/09 09:57:26;;;;;;;6.07;2.27;;;;;;;12.92;44.50;101128.43;124998;1102;104194;-76
2023/10/09 10:00:07;;;;;;;2.57;1.53;;;;;;;13.02;42.95;101144.57;125341;1099;102100;-83
2023/10/09 10:02:48;;;;;;;5.60;2.10;;;;;;;12.93;43.69;101146.04;126201;1098;101820;-77
2023/10/09 10:05:21;;;;;;;7.33;2.30;;;;;;;12.93;42.97;101135.50;125223;1099;101810;-76
2023/10/09 10:07:55;;;;;;;8.70;2.40;;;;;;;12.97;43.21;101127.71;124689;1099;104315;-78
2023/10/09 10:10:57;;;;;;;10.93;2.00;;;;;;;12.94;43.49;101129.38;124864;1099;104207;-77
2023/10/09 10:14:01;;;;;;;7.10;1.53;;;;;;;12.99;43.43;101131.29;124965;1099;104204;-77
2023/10/09 10:17:04;;;;;;;3.50;1.53;;;;;;;13.04;42.72;101127.98;124801;1099;104265;-79
2023/10/09 10:23:25;;;;;;;23.45;4.15;;;;;;;13.02;43.26;101119.11;126222;1098;104229;-77
2023/10/09 10:26:20;;;;;;;6.77;2.47;;;;;;;13.11;43.52;101108.02;126261;1098;101995;-79
2023/10/09 10:29:26;;;;;;;6.37;2.03;;;;;;;13.21;43.58;101101.31;126024;1098;101782;-79
2023/10/09 10:32:06;;;;;;;4.37;1.40;;;;;;;13.26;43.40;101090.10;124558;1099;101965;-77
2023/10/09 10:35:06;;;;;;;4.77;1.67;;;;;;;13.29;43.54;101082.30;124313;1102;104242;-74
2023/10/09 10:37:45;;;;;;;8.87;1.80;;;;;;;13.44;43.84;101081.05;124673;1099;102428;-73
2023/10/09 10:40:40;;;;;;;3.10;2.00;;;;;;;13.45;42.98;101073.19;124324;1099;102009;-76
2023/10/09 10:43:32;;;;;;;4.10;2.20;;;;;;;13.40;41.69;101058.97;125033;1099;104245;-75
2023/10/09 10:46:13;;;;;;;5.23;1.70;;;;;;;13.28;42.15;101054.14;124410;1099;104159;-75
2023/10/09 10:48:47;;;;;;;6.13;1.60;;;;;;;13.30;41.55;101062.98;125089;1099;102757;-76
2023/10/09 10:51:35;;;;;;;3.95;1.35;;;;;;;13.27;41.87;101049.70;124556;1099;104207;-76
2023/10/09 10:57:53;;;;;;;2.87;1.53;;;;;;;13.40;40.79;101055.42;124414;1102;101977;-75
2023/10/09 11:03:29;;;;;;;5.40;1.87;;;;;;;13.17;41.70;101038.83;124787;1099;102030;-74
2023/10/09 11:06:14;;;;;;;2.77;1.53;;;;;;;13.17;41.38;101037.08;124511;1099;104280;-74
2023/10/09 11:08:54;;;;;;;6.17;1.80;;;;;;;13.15;41.42;101029.95;124757;1099;102626;-76
2023/10/09 11:11:32;;;;;;;43.40;7.00;;;;;;;13.23;41.48;101023.20;124351;1102;104201;-76
2023/10/09 11:14:14;;;;;;;39.90;6.20;;;;;;;13.27;41.14;101030.37;124767;1099;104268;-75
2023/10/09 11:16:48;;;;;;;21.30;3.53;;;;;;;13.34;41.51;101026.22;124491;1099;104227;-74
2023/10/09 11:19:31;;;;;;;26.57;5.60;;;;;;;13.47;41.82;101025.79;124220;1099;102633;-74
2023/10/09 11:25:12;;;;;;;2.60;1.50;;;;;;;13.53;40.92;101038.28;124427;1099;104281;-74
2023/10/09 11:27:51;;;;;;;3.73;1.37;;;;;;;13.45;41.45;101038.03;124390;1099;103683;-73
2023/10/09 11:30:34;;;;;;;4.67;1.50;;;;;;;13.42;41.67;101028.27;124440;1099;102474;-77
2023/10/09 11:33:15;;;;;;;;;;;;;;;13.38;41.16;101025.48;125513;1099;103718;-78
2023/10/09 11:35:58;;;;;;;5.33;1.80;;;;;;;13.34;41.21;101023.58;124804;1099;102022;-72
2023/10/09 11:38:39;;;;;;;3.90;1.57;;;;;;;13.36;40.96;101022.80;124448;1099;104057;-73
2023/10/09 11:41:41;;;;;;;3.43;1.63;;;;;;;13.33;40.45;101034.96;124809;1099;111621;-73
2023/10/09 11:44:25;;;;;;;2.93;1.23;;;;;;;13.26;41.24;101020.66;124501;1099;104258;-75
2023/10/09 11:47:14;;;;;;;;;;;;;;;13.22;41.04;101017.04;124709;1099;104213;-79
2023/10/09 11:50:10;;;;;;;7.40;1.77;;;;;;;13.30;41.21;101026.09;124480;1099;104166;-76
2023/10/09 11:53:09;;;;;;;4.23;1.30;;;;;;;13.26;40.74;101004.84;124493;1099;104195;-74
2023/10/09 11:55:40;;;;;;;5.60;1.35;;;;;;;13.33;41.33;101027.97;124504;1099;102322;-74
2023/10/09 11:58:22;;;;;;;3.50;1.60;;;;;;;13.25;40.62;101038.22;125262;1099;104236;-82
2023/10/09 12:01:17;;;;;;;3.40;1.60;;;;;;;13.24;40.99;101017.97;126408;1098;104181;-79
2023/10/09 12:03:50;;;;;;;5.23;1.97;;;;;;;13.23;40.74;101012.66;124900;1098;104217;-75
2023/10/09 12:06:23;;;;;;;3.05;1.50;;;;;;;13.15;40.44;101004.52;124914;1099;104281;-78
2023/10/09 12:08:58;;;;;;;5.57;1.40;;;;;;;13.05;40.17;101005.05;124630;1100;104289;-78
2023/10/09 12:11:31;;;;;;;2.67;1.23;;;;;;;12.98;39.65;101013.58;124701;1099;104181;-72
2023/10/09 12:14:04;;;;;;;3.50;1.90;;;;;;;12.86;39.86;101016.70;124620;1099;104210;-74
2023/10/09 12:16:40;;;;;;;3.33;1.40;;;;;;;12.77;39.75;101012.00;124762;1099;104255;-80
2023/10/09 12:22:00;;;;;;;4.07;1.37;;;;;;;12.70;39.82;101017.88;125354;1099;104063;-80
2023/10/09 12:24:33;;;;;;;3.83;1.17;;;;;;;12.62;39.33;101019.36;124961;1099;102135;-77
2023/10/09 12:27:09;;;;;;;2.87;1.42;;;;;;;12.51;39.26;101021.60;126607;1099;104334;-80
2023/10/09 12:29:45;;;;;;;1.70;1.30;;;;;;;12.44;39.40;101025.76;125106;1099;104165;-78
2023/10/09 12:32:19;;;;;;;3.50;1.17;;;;;;;12.39;39.33;101022.95;124840;1099;104213;-81
2023/10/09 12:34:56;;;;;;;4.07;1.43;;;;;;;12.33;39.30;101019.22;125241;1098;104233;-74
2023/10/09 12:37:31;;;;;;;2.53;1.50;;;;;;;12.27;39.35;101022.50;126435;1098;102288;-81
2023/10/09 12:40:05;;;;;;;4.37;1.33;;;;;;;12.25;39.42;101012.75;126490;1098;104266;-80
2023/10/09 12:42:38;;;;;;;6.80;1.60;;;;;;;12.25;39.66;101015.38;126399;1098;101807;-79
2023/10/09 12:45:12;;;;;;;6.53;1.80;;;;;;;12.25;39.95;101007.48;125451;1099;104163;-78
2023/10/09 12:47:49;;;;;;;2.23;1.40;;;;;;;12.27;39.75;101004.09;125332;1099;102069;-77
2023/10/09 12:50:41;;;;;;;4.30;1.70;;;;;;;12.32;39.87;100999.87;125449;1099;104166;-78
2023/10/09 12:53:19;;;;;;;5.97;2.00;;;;;;;12.38;40.10;101001.84;127147;1098;118325;-78
2023/10/09 12:56:01;;;;;;;4.10;1.83;;;;;;;12.42;40.00;100990.60;125689;1099;102077;-81
2023/10/09 12:58:52;;;;;;;9.60;2.27;;;;;;;12.44;39.99;100990.66;126113;1099;104172;-80
2023/10/09 13:01:24;;;;;;;4.20;1.90;;;;;;;12.44;39.71;100999.44;125384;1099;101928;-79
2023/10/09 13:03:56;;;;;;;5.53;1.70;;;;;;;12.42;39.76;100998.50;125325;1099;102311;-77
2023/10/09 13:06:29;;;;;;;6.83;1.93;;;;;;;12.38;39.67;100992.20;126017;1099;103139;-75
2023/10/09 13:09:09;;;;;;;3.20;1.90;;;;;;;12.31;39.57;100992.84;124932;1099;101983;-77
2023/10/09 13:11:42;;;;;;;5.73;2.07;;;;;;;12.23;39.76;100989.93;126538;1098;102585;-77
2023/10/09 13:14:16;;;;;;;4.87;1.40;;;;;;;12.18;39.54;100994.11;126383;1098;102076;-78